Pine River, Wisconsin
Current Conditions -  °F | °C
As of 4:56 PM on Wednesday 22 Oct 2014 (Local Time) from KY50 Reporting Station
Overcast Overcast  
Wind Chill: 56°   Ceiling: 100
Heat Index: 56°   Visibility: 10mi
Dew Point: 36°   Wind: 7mph
Humidity: 47%   Direction: 150°SSE
Pressure: 30.24"   Gusts: NA
Location:  44.15°N, 89.08°W
Report Text: KY50 222156Z AUTO 15006KT 10SM OVC001 13/02 A3024 RMK AO2 TSNO T01330022 SLP246
Loading
Personal Weather Stations






























Interactive Weather Map
Tropical Storm Tracking
New forecast layout! Learn more

10-Day Weather Forecast

Advertisements
Track Severe Weather on mobile